In Rescue
 
Open Full Screen Window  High Contrast Mode
Wind Gusting 00 knots
03
December 15, 2019 7:58 PM EST
Weather Information
Wind Direction
  220 °
Wind Speed
  03 kt (3 mph)
Wind Gust
  00 kt (0 mph)
Altimeter
30.16 in
Visibility
10 SM
Temperature
-02° C
28° F
Dewpoint
-08° C
18° F
Humidity
64%
1hr Rain Fall
00.00 in.
24hr Rain Fall
00.01 in.
Sky Condition
Overcast @ 3,200 ft
VFR

METAR KPOV 160058Z AUTO 22003KT 10SM OVC032 M02/M08 A3016 RMK AO2 T10201077 PWINO

FAA Disclaimer: The data displayed is for advisory purposes only and is not to be used for flight planning or operations.